sensor_id;sensor_type;location;lat;lon;timestamp;P1;durP1;ratioP1;P2;durP2;ratioP2
70183;SDS011;57554;51.546;6.776;2022-07-03T00:01:02;4.38;;;1.98;;
70183;SDS011;57554;51.546;6.776;2022-07-03T00:03:28;5.88;;;2.25;;
70183;SDS011;57554;51.546;6.776;2022-07-03T00:05:54;7.13;;;2.80;;
70183;SDS011;57554;51.546;6.776;2022-07-03T00:08:19;7.30;;;2.50;;
70183;SDS011;57554;51.546;6.776;2022-07-03T00:10:45;6.88;;;2.80;;
70183;SDS011;57554;51.546;6.776;2022-07-03T00:13:11;6.07;;;2.22;;
70183;SDS011;57554;51.546;6.776;2022-07-03T00:15:36;5.35;;;2.22;;
70183;SDS011;57554;51.546;6.776;2022-07-03T00:18:03;7.05;;;2.33;;
70183;SDS011;57554;51.546;6.776;2022-07-03T00:20:30;5.15;;;2.00;;
70183;SDS011;57554;51.546;6.776;2022-07-03T00:23:02;5.05;;;2.03;;
70183;SDS011;57554;51.546;6.776;2022-07-03T00:25:31;6.80;;;2.00;;
70183;SDS011;57554;51.546;6.776;2022-07-03T00:27:58;6.93;;;2.10;;
70183;SDS011;57554;51.546;6.776;2022-07-03T00:30:24;6.93;;;1.98;;
70183;SDS011;57554;51.546;6.776;2022-07-03T00:32:51;5.43;;;2.38;;
70183;SDS011;57554;51.546;6.776;2022-07-03T00:35:17;6.15;;;1.95;;
70183;SDS011;57554;51.546;6.776;2022-07-03T00:37:43;6.40;;;2.40;;
70183;SDS011;57554;51.546;6.776;2022-07-03T00:40:09;4.95;;;2.17;;
70183;SDS011;57554;51.546;6.776;2022-07-03T00:42:37;5.78;;;2.30;;
70183;SDS011;57554;51.546;6.776;2022-07-03T00:45:06;5.93;;;2.13;;
70183;SDS011;57554;51.546;6.776;2022-07-03T00:47:34;6.03;;;2.35;;
70183;SDS011;57554;51.546;6.776;2022-07-03T00:50:05;7.55;;;2.38;;
70183;SDS011;57554;51.546;6.776;2022-07-03T00:52:32;7.38;;;2.50;;
70183;SDS011;57554;51.546;6.776;2022-07-03T00:54:59;4.57;;;2.05;;
70183;SDS011;57554;51.546;6.776;2022-07-03T00:57:29;5.70;;;2.42;;
70183;SDS011;57554;51.546;6.776;2022-07-03T01:06:40;6.07;;;2.30;;
70183;SDS011;57554;51.546;6.776;2022-07-03T01:12:15;7.72;;;2.33;;
70183;SDS011;57554;51.546;6.776;2022-07-03T01:17:33;4.28;;;1.90;;
70183;SDS011;57554;51.546;6.776;2022-07-03T01:20:03;5.60;;;2.17;;
70183;SDS011;57554;51.546;6.776;2022-07-03T01:22:36;6.18;;;2.35;;
70183;SDS011;57554;51.546;6.776;2022-07-03T01:30:24;4.97;;;2.38;;
70183;SDS011;57554;51.546;6.776;2022-07-03T01:35:45;4.32;;;2.10;;
70183;SDS011;57554;51.546;6.776;2022-07-03T01:38:19;7.40;;;2.60;;
70183;SDS011;57554;51.546;6.776;2022-07-03T01:40:46;4.97;;;2.10;;
70183;SDS011;57554;51.546;6.776;2022-07-03T01:43:15;4.88;;;1.90;;
70183;SDS011;57554;51.546;6.776;2022-07-03T01:45:45;4.43;;;1.80;;
70183;SDS011;57554;51.546;6.776;2022-07-03T01:48:13;5.55;;;2.50;;
70183;SDS011;57554;51.546;6.776;2022-07-03T01:50:40;7.00;;;2.20;;
70183;SDS011;57554;51.546;6.776;2022-07-03T01:53:07;7.60;;;2.55;;
70183;SDS011;57554;51.546;6.776;2022-07-03T01:55:35;5.15;;;2.28;;
70183;SDS011;57554;51.546;6.776;2022-07-03T01:58:05;6.60;;;2.33;;
70183;SDS011;57554;51.546;6.776;2022-07-03T02:00:31;7.75;;;2.15;;
70183;SDS011;57554;51.546;6.776;2022-07-03T02:03:26;4.95;;;2.00;;
70183;SDS011;57554;51.546;6.776;2022-07-03T02:05:59;7.57;;;2.13;;
70183;SDS011;57554;51.546;6.776;2022-07-03T02:08:45;7.28;;;2.05;;
70183;SDS011;57554;51.546;6.776;2022-07-03T02:11:23;4.72;;;2.15;;
70183;SDS011;57554;51.546;6.776;2022-07-03T02:13:55;6.10;;;2.60;;
70183;SDS011;57554;51.546;6.776;2022-07-03T02:17:42;8.32;;;2.85;;
70183;SDS011;57554;51.546;6.776;2022-07-03T02:19:47;6.10;;;3.08;;
70183;SDS011;57554;51.546;6.776;2022-07-03T02:22:18;8.02;;;2.95;;
70183;SDS011;57554;51.546;6.776;2022-07-03T02:24:45;6.55;;;3.25;;
70183;SDS011;57554;51.546;6.776;2022-07-03T02:27:22;6.82;;;3.40;;
70183;SDS011;57554;51.546;6.776;2022-07-03T02:29:54;6.50;;;2.92;;
70183;SDS011;57554;51.546;6.776;2022-07-03T02:32:27;7.90;;;3.08;;
70183;SDS011;57554;51.546;6.776;2022-07-03T02:34:58;7.25;;;2.63;;
70183;SDS011;57554;51.546;6.776;2022-07-03T02:37:31;7.63;;;2.83;;
70183;SDS011;57554;51.546;6.776;2022-07-03T02:40:02;6.32;;;2.83;;
70183;SDS011;57554;51.546;6.776;2022-07-03T02:42:39;7.00;;;3.08;;
70183;SDS011;57554;51.546;6.776;2022-07-03T02:45:11;5.97;;;2.92;;
70183;SDS011;57554;51.546;6.776;2022-07-03T02:47:51;6.70;;;2.72;;
70183;SDS011;57554;51.546;6.776;2022-07-03T02:50:27;6.30;;;2.70;;
70183;SDS011;57554;51.546;6.776;2022-07-03T02:53:38;6.53;;;3.05;;
70183;SDS011;57554;51.546;6.776;2022-07-03T02:55:49;6.50;;;2.60;;
70183;SDS011;57554;51.546;6.776;2022-07-03T03:00:57;6.38;;;2.85;;
70183;SDS011;57554;51.546;6.776;2022-07-03T03:03:45;5.70;;;2.80;;
70183;SDS011;57554;51.546;6.776;2022-07-03T03:06:27;5.68;;;2.90;;
70183;SDS011;57554;51.546;6.776;2022-07-03T03:08:59;7.93;;;3.30;;
70183;SDS011;57554;51.546;6.776;2022-07-03T03:14:10;5.60;;;2.80;;
70183;SDS011;57554;51.546;6.776;2022-07-03T03:17:01;7.93;;;3.20;;
70183;SDS011;57554;51.546;6.776;2022-07-03T03:19:28;5.25;;;2.80;;
70183;SDS011;57554;51.546;6.776;2022-07-03T03:22:06;7.05;;;3.17;;
70183;SDS011;57554;51.546;6.776;2022-07-03T03:24:33;5.80;;;2.75;;
70183;SDS011;57554;51.546;6.776;2022-07-03T03:26:59;7.28;;;2.95;;
70183;SDS011;57554;51.546;6.776;2022-07-03T03:29:25;6.30;;;2.90;;
70183;SDS011;57554;51.546;6.776;2022-07-03T03:31:51;7.68;;;3.00;;
70183;SDS011;57554;51.546;6.776;2022-07-03T03:34:17;9.40;;;2.72;;
70183;SDS011;57554;51.546;6.776;2022-07-03T03:36:45;8.60;;;2.80;;
70183;SDS011;57554;51.546;6.776;2022-07-03T03:39:10;5.88;;;2.50;;
70183;SDS011;57554;51.546;6.776;2022-07-03T03:41:37;5.22;;;2.60;;
70183;SDS011;57554;51.546;6.776;2022-07-03T03:44:03;6.15;;;2.30;;
70183;SDS011;57554;51.546;6.776;2022-07-03T03:46:29;6.40;;;2.53;;
70183;SDS011;57554;51.546;6.776;2022-07-03T03:48:55;6.82;;;2.53;;
70183;SDS011;57554;51.546;6.776;2022-07-03T03:51:21;7.65;;;2.42;;
70183;SDS011;57554;51.546;6.776;2022-07-03T03:53:47;6.60;;;2.58;;
70183;SDS011;57554;51.546;6.776;2022-07-03T03:56:13;4.93;;;2.22;;
70183;SDS011;57554;51.546;6.776;2022-07-03T03:58:40;5.30;;;2.20;;
70183;SDS011;57554;51.546;6.776;2022-07-03T04:01:08;5.18;;;2.38;;
70183;SDS011;57554;51.546;6.776;2022-07-03T04:03:34;6.35;;;2.50;;
70183;SDS011;57554;51.546;6.776;2022-07-03T04:06:00;5.20;;;2.20;;
70183;SDS011;57554;51.546;6.776;2022-07-03T04:08:27;7.72;;;2.38;;
70183;SDS011;57554;51.546;6.776;2022-07-03T04:10:53;8.07;;;2.97;;
70183;SDS011;57554;51.546;6.776;2022-07-03T04:13:19;5.68;;;2.20;;
70183;SDS011;57554;51.546;6.776;2022-07-03T04:15:45;7.43;;;2.60;;
70183;SDS011;57554;51.546;6.776;2022-07-03T04:18:14;6.10;;;2.60;;
70183;SDS011;57554;51.546;6.776;2022-07-03T04:20:40;5.28;;;2.60;;
70183;SDS011;57554;51.546;6.776;2022-07-03T04:23:06;8.90;;;3.42;;
70183;SDS011;57554;51.546;6.776;2022-07-03T04:25:32;9.20;;;2.95;;
70183;SDS011;57554;51.546;6.776;2022-07-03T04:27:57;7.40;;;3.00;;
70183;SDS011;57554;51.546;6.776;2022-07-03T04:30:23;6.25;;;2.83;;
70183;SDS011;57554;51.546;6.776;2022-07-03T04:32:49;6.90;;;3.00;;
70183;SDS011;57554;51.546;6.776;2022-07-03T04:35:15;7.63;;;3.22;;
70183;SDS011;57554;51.546;6.776;2022-07-03T04:37:41;6.82;;;3.00;;
70183;SDS011;57554;51.546;6.776;2022-07-03T04:40:07;9.35;;;3.15;;
70183;SDS011;57554;51.546;6.776;2022-07-03T04:42:34;5.95;;;3.20;;
70183;SDS011;57554;51.546;6.776;2022-07-03T04:45:00;7.07;;;3.30;;
70183;SDS011;57554;51.546;6.776;2022-07-03T04:47:26;10.75;;;3.30;;
70183;SDS011;57554;51.546;6.776;2022-07-03T04:49:51;6.43;;;2.75;;
70183;SDS011;57554;51.546;6.776;2022-07-03T04:52:17;8.40;;;3.13;;
70183;SDS011;57554;51.546;6.776;2022-07-03T04:54:42;6.88;;;2.55;;
70183;SDS011;57554;51.546;6.776;2022-07-03T04:57:08;6.50;;;3.42;;
70183;SDS011;57554;51.546;6.776;2022-07-03T04:59:34;6.82;;;3.22;;
70183;SDS011;57554;51.546;6.776;2022-07-03T05:02:00;8.85;;;3.55;;
70183;SDS011;57554;51.546;6.776;2022-07-03T05:04:26;7.18;;;3.90;;
70183;SDS011;57554;51.546;6.776;2022-07-03T05:06:51;10.10;;;4.90;;
70183;SDS011;57554;51.546;6.776;2022-07-03T05:09:17;15.95;;;10.13;;
70183;SDS011;57554;51.546;6.776;2022-07-03T05:11:43;22.30;;;16.25;;
70183;SDS011;57554;51.546;6.776;2022-07-03T05:14:09;22.20;;;16.83;;
70183;SDS011;57554;51.546;6.776;2022-07-03T05:16:35;22.23;;;14.15;;
70183;SDS011;57554;51.546;6.776;2022-07-03T05:19:01;18.75;;;13.57;;
70183;SDS011;57554;51.546;6.776;2022-07-03T05:21:27;24.73;;;16.77;;
70183;SDS011;57554;51.546;6.776;2022-07-03T05:23:53;20.67;;;14.60;;
70183;SDS011;57554;51.546;6.776;2022-07-03T05:26:19;17.13;;;13.00;;
70183;SDS011;57554;51.546;6.776;2022-07-03T05:28:45;17.88;;;12.80;;
70183;SDS011;57554;51.546;6.776;2022-07-03T05:31:11;17.48;;;12.27;;
70183;SDS011;57554;51.546;6.776;2022-07-03T05:33:37;15.73;;;11.50;;
70183;SDS011;57554;51.546;6.776;2022-07-03T05:36:02;13.55;;;9.48;;
70183;SDS011;57554;51.546;6.776;2022-07-03T05:38:29;13.00;;;9.25;;
70183;SDS011;57554;51.546;6.776;2022-07-03T05:41:13;14.48;;;8.65;;
70183;SDS011;57554;51.546;6.776;2022-07-03T05:43:39;11.82;;;7.78;;
70183;SDS011;57554;51.546;6.776;2022-07-03T05:46:04;10.98;;;7.00;;
70183;SDS011;57554;51.546;6.776;2022-07-03T05:48:30;11.07;;;6.80;;
70183;SDS011;57554;51.546;6.776;2022-07-03T05:50:56;8.68;;;5.93;;
70183;SDS011;57554;51.546;6.776;2022-07-03T05:53:22;9.23;;;5.30;;
70183;SDS011;57554;51.546;6.776;2022-07-03T05:55:48;14.77;;;5.72;;
70183;SDS011;57554;51.546;6.776;2022-07-03T05:58:14;9.60;;;5.25;;
70183;SDS011;57554;51.546;6.776;2022-07-03T06:00:40;8.32;;;4.80;;
70183;SDS011;57554;51.546;6.776;2022-07-03T06:03:05;9.23;;;4.70;;
70183;SDS011;57554;51.546;6.776;2022-07-03T06:05:34;8.75;;;4.50;;
70183;SDS011;57554;51.546;6.776;2022-07-03T06:08:00;7.93;;;4.35;;
70183;SDS011;57554;51.546;6.776;2022-07-03T06:10:26;8.27;;;4.47;;
70183;SDS011;57554;51.546;6.776;2022-07-03T06:12:52;6.68;;;4.30;;
70183;SDS011;57554;51.546;6.776;2022-07-03T06:15:18;8.50;;;4.07;;
70183;SDS011;57554;51.546;6.776;2022-07-03T06:17:44;7.72;;;3.90;;
70183;SDS011;57554;51.546;6.776;2022-07-03T06:20:10;7.57;;;3.92;;
70183;SDS011;57554;51.546;6.776;2022-07-03T06:22:36;6.43;;;3.50;;
70183;SDS011;57554;51.546;6.776;2022-07-03T06:25:03;8.18;;;4.18;;
70183;SDS011;57554;51.546;6.776;2022-07-03T06:27:29;9.32;;;4.00;;
70183;SDS011;57554;51.546;6.776;2022-07-03T06:29:55;7.63;;;3.53;;
70183;SDS011;57554;51.546;6.776;2022-07-03T06:32:20;7.20;;;3.63;;
70183;SDS011;57554;51.546;6.776;2022-07-03T06:34:46;9.65;;;3.47;;
70183;SDS011;57554;51.546;6.776;2022-07-03T06:37:12;7.88;;;3.53;;
70183;SDS011;57554;51.546;6.776;2022-07-03T06:39:38;7.72;;;3.53;;
70183;SDS011;57554;51.546;6.776;2022-07-03T06:42:04;8.77;;;3.30;;
70183;SDS011;57554;51.546;6.776;2022-07-03T06:44:30;7.65;;;3.75;;
70183;SDS011;57554;51.546;6.776;2022-07-03T06:46:56;7.03;;;4.00;;
70183;SDS011;57554;51.546;6.776;2022-07-03T06:49:22;11.95;;;3.67;;
70183;SDS011;57554;51.546;6.776;2022-07-03T06:51:48;9.52;;;4.32;;
70183;SDS011;57554;51.546;6.776;2022-07-03T06:54:13;7.07;;;3.33;;
70183;SDS011;57554;51.546;6.776;2022-07-03T06:56:39;7.85;;;4.35;;
70183;SDS011;57554;51.546;6.776;2022-07-03T06:59:05;10.00;;;4.03;;
70183;SDS011;57554;51.546;6.776;2022-07-03T07:01:30;6.72;;;3.42;;
70183;SDS011;57554;51.546;6.776;2022-07-03T07:03:56;9.82;;;3.25;;
70183;SDS011;57554;51.546;6.776;2022-07-03T07:06:22;9.35;;;3.95;;
70183;SDS011;57554;51.546;6.776;2022-07-03T07:08:47;9.73;;;4.13;;
70183;SDS011;57554;51.546;6.776;2022-07-03T07:11:13;7.20;;;3.20;;
70183;SDS011;57554;51.546;6.776;2022-07-03T07:13:39;8.35;;;3.17;;
70183;SDS011;57554;51.546;6.776;2022-07-03T07:16:05;7.18;;;2.92;;
70183;SDS011;57554;51.546;6.776;2022-07-03T07:18:31;7.88;;;3.83;;
70183;SDS011;57554;51.546;6.776;2022-07-03T07:20:57;6.78;;;3.20;;
70183;SDS011;57554;51.546;6.776;2022-07-03T07:23:23;5.75;;;2.42;;
70183;SDS011;57554;51.546;6.776;2022-07-03T07:25:48;6.38;;;2.53;;
70183;SDS011;57554;51.546;6.776;2022-07-03T07:28:14;9.02;;;2.75;;
70183;SDS011;57554;51.546;6.776;2022-07-03T07:30:40;9.55;;;2.67;;
70183;SDS011;57554;51.546;6.776;2022-07-03T07:33:06;5.07;;;2.50;;
70183;SDS011;57554;51.546;6.776;2022-07-03T07:35:32;6.63;;;2.63;;
70183;SDS011;57554;51.546;6.776;2022-07-03T07:37:57;6.63;;;2.38;;
70183;SDS011;57554;51.546;6.776;2022-07-03T07:40:23;5.72;;;2.00;;
70183;SDS011;57554;51.546;6.776;2022-07-03T07:42:49;6.00;;;1.88;;
70183;SDS011;57554;51.546;6.776;2022-07-03T07:45:15;8.70;;;2.75;;
70183;SDS011;57554;51.546;6.776;2022-07-03T07:47:41;7.32;;;2.47;;
70183;SDS011;57554;51.546;6.776;2022-07-03T07:50:06;7.50;;;2.35;;
70183;SDS011;57554;51.546;6.776;2022-07-03T07:52:33;6.88;;;2.90;;
70183;SDS011;57554;51.546;6.776;2022-07-03T07:54:58;8.75;;;2.63;;
70183;SDS011;57554;51.546;6.776;2022-07-03T07:57:24;9.05;;;2.40;;
70183;SDS011;57554;51.546;6.776;2022-07-03T07:59:51;6.80;;;3.00;;
70183;SDS011;57554;51.546;6.776;2022-07-03T08:02:16;6.75;;;3.33;;
70183;SDS011;57554;51.546;6.776;2022-07-03T08:05:01;6.78;;;2.83;;
70183;SDS011;57554;51.546;6.776;2022-07-03T08:08:03;9.30;;;3.50;;
70183;SDS011;57554;51.546;6.776;2022-07-03T08:10:40;7.75;;;3.35;;
70183;SDS011;57554;51.546;6.776;2022-07-03T08:13:07;6.55;;;2.90;;
70183;SDS011;57554;51.546;6.776;2022-07-03T08:15:33;5.97;;;3.08;;
70183;SDS011;57554;51.546;6.776;2022-07-03T08:18:00;8.70;;;3.50;;
70183;SDS011;57554;51.546;6.776;2022-07-03T08:20:26;7.35;;;3.28;;
70183;SDS011;57554;51.546;6.776;2022-07-03T08:22:52;5.97;;;2.65;;
70183;SDS011;57554;51.546;6.776;2022-07-03T08:25:18;6.45;;;3.10;;
70183;SDS011;57554;51.546;6.776;2022-07-03T08:27:44;5.45;;;1.90;;
70183;SDS011;57554;51.546;6.776;2022-07-03T08:30:09;5.28;;;1.98;;
70183;SDS011;57554;51.546;6.776;2022-07-03T08:32:36;6.93;;;1.80;;
70183;SDS011;57554;51.546;6.776;2022-07-03T08:35:02;7.50;;;2.08;;
70183;SDS011;57554;51.546;6.776;2022-07-03T08:37:27;6.60;;;1.65;;
70183;SDS011;57554;51.546;6.776;2022-07-03T08:39:53;7.63;;;2.05;;
70183;SDS011;57554;51.546;6.776;2022-07-03T08:42:19;5.32;;;1.98;;
70183;SDS011;57554;51.546;6.776;2022-07-03T08:44:46;6.03;;;2.22;;
70183;SDS011;57554;51.546;6.776;2022-07-03T08:47:14;5.45;;;2.13;;
70183;SDS011;57554;51.546;6.776;2022-07-03T08:49:42;5.53;;;2.08;;
70183;SDS011;57554;51.546;6.776;2022-07-03T08:52:08;7.10;;;2.63;;
70183;SDS011;57554;51.546;6.776;2022-07-03T08:54:35;6.88;;;2.22;;
70183;SDS011;57554;51.546;6.776;2022-07-03T08:57:02;7.03;;;1.90;;
70183;SDS011;57554;51.546;6.776;2022-07-03T08:59:32;5.78;;;2.10;;
70183;SDS011;57554;51.546;6.776;2022-07-03T09:02:04;5.70;;;2.03;;
70183;SDS011;57554;51.546;6.776;2022-07-03T09:04:33;8.85;;;2.40;;
70183;SDS011;57554;51.546;6.776;2022-07-03T09:06:59;6.28;;;2.45;;
70183;SDS011;57554;51.546;6.776;2022-07-03T09:09:26;8.10;;;2.50;;
70183;SDS011;57554;51.546;6.776;2022-07-03T09:11:52;6.30;;;3.03;;
70183;SDS011;57554;51.546;6.776;2022-07-03T09:14:18;6.53;;;2.88;;
70183;SDS011;57554;51.546;6.776;2022-07-03T09:16:44;6.20;;;2.45;;
70183;SDS011;57554;51.546;6.776;2022-07-03T09:19:10;5.82;;;2.67;;
70183;SDS011;57554;51.546;6.776;2022-07-03T09:21:37;7.07;;;2.80;;
70183;SDS011;57554;51.546;6.776;2022-07-03T09:24:04;6.15;;;2.63;;
70183;SDS011;57554;51.546;6.776;2022-07-03T09:26:31;6.82;;;3.20;;
70183;SDS011;57554;51.546;6.776;2022-07-03T09:28:57;6.75;;;3.42;;
70183;SDS011;57554;51.546;6.776;2022-07-03T09:31:27;6.43;;;3.00;;
70183;SDS011;57554;51.546;6.776;2022-07-03T09:33:58;8.70;;;3.50;;
70183;SDS011;57554;51.546;6.776;2022-07-03T09:36:50;5.60;;;2.70;;
70183;SDS011;57554;51.546;6.776;2022-07-03T09:39:25;6.80;;;3.17;;
70183;SDS011;57554;51.546;6.776;2022-07-03T09:50:01;13.25;;;3.08;;
70183;SDS011;57554;51.546;6.776;2022-07-03T09:52:33;5.55;;;2.53;;
70183;SDS011;57554;51.546;6.776;2022-07-03T09:57:38;5.82;;;2.50;;
70183;SDS011;57554;51.546;6.776;2022-07-03T10:00:14;5.50;;;2.15;;
70183;SDS011;57554;51.546;6.776;2022-07-03T10:02:56;6.95;;;2.60;;
70183;SDS011;57554;51.546;6.776;2022-07-03T10:05:25;7.30;;;2.55;;
70183;SDS011;57554;51.546;6.776;2022-07-03T10:07:57;9.05;;;2.78;;
70183;SDS011;57554;51.546;6.776;2022-07-03T10:10:27;5.00;;;2.15;;
70183;SDS011;57554;51.546;6.776;2022-07-03T10:12:54;6.03;;;2.47;;
70183;SDS011;57554;51.546;6.776;2022-07-03T10:15:21;6.15;;;2.20;;
70183;SDS011;57554;51.546;6.776;2022-07-03T10:17:49;5.78;;;1.88;;
70183;SDS011;57554;51.546;6.776;2022-07-03T10:20:19;7.90;;;2.03;;
70183;SDS011;57554;51.546;6.776;2022-07-03T10:22:50;6.50;;;1.90;;
70183;SDS011;57554;51.546;6.776;2022-07-03T10:25:17;6.50;;;1.70;;
70183;SDS011;57554;51.546;6.776;2022-07-03T10:27:43;5.32;;;2.20;;
70183;SDS011;57554;51.546;6.776;2022-07-03T10:30:17;6.13;;;2.42;;
70183;SDS011;57554;51.546;6.776;2022-07-03T10:32:45;6.78;;;2.03;;
70183;SDS011;57554;51.546;6.776;2022-07-03T10:35:14;6.43;;;1.83;;
70183;SDS011;57554;51.546;6.776;2022-07-03T10:43:18;4.68;;;1.63;;
70183;SDS011;57554;51.546;6.776;2022-07-03T10:51:20;5.82;;;1.90;;
70183;SDS011;57554;51.546;6.776;2022-07-03T10:53:46;4.50;;;1.60;;
70183;SDS011;57554;51.546;6.776;2022-07-03T10:56:12;6.80;;;1.52;;
70183;SDS011;57554;51.546;6.776;2022-07-03T10:58:58;5.35;;;1.42;;
70183;SDS011;57554;51.546;6.776;2022-07-03T11:01:25;5.80;;;1.63;;
70183;SDS011;57554;51.546;6.776;2022-07-03T11:03:57;6.55;;;1.60;;
70183;SDS011;57554;51.546;6.776;2022-07-03T11:09:11;4.60;;;1.48;;
70183;SDS011;57554;51.546;6.776;2022-07-03T11:11:41;8.10;;;1.67;;
70183;SDS011;57554;51.546;6.776;2022-07-03T11:14:20;6.28;;;1.92;;
70183;SDS011;57554;51.546;6.776;2022-07-03T11:16:46;6.97;;;1.60;;
70183;SDS011;57554;51.546;6.776;2022-07-03T11:19:12;5.18;;;1.42;;
70183;SDS011;57554;51.546;6.776;2022-07-03T11:21:39;6.90;;;1.83;;
70183;SDS011;57554;51.546;6.776;2022-07-03T11:24:16;5.55;;;1.70;;
70183;SDS011;57554;51.546;6.776;2022-07-03T11:27:16;5.70;;;1.55;;
70183;SDS011;57554;51.546;6.776;2022-07-03T11:29:48;4.93;;;1.40;;
70183;SDS011;57554;51.546;6.776;2022-07-03T11:38:20;5.72;;;1.55;;
70183;SDS011;57554;51.546;6.776;2022-07-03T11:40:51;4.50;;;1.20;;
70183;SDS011;57554;51.546;6.776;2022-07-03T11:43:18;5.45;;;1.25;;
70183;SDS011;57554;51.546;6.776;2022-07-03T11:45:45;4.80;;;1.23;;
70183;SDS011;57554;51.546;6.776;2022-07-03T11:48:18;3.97;;;1.10;;
70183;SDS011;57554;51.546;6.776;2022-07-03T11:50:48;6.47;;;1.23;;
70183;SDS011;57554;51.546;6.776;2022-07-03T11:53:15;5.55;;;1.13;;
70183;SDS011;57554;51.546;6.776;2022-07-03T11:55:48;4.18;;;1.17;;
70183;SDS011;57554;51.546;6.776;2022-07-03T11:58:14;5.18;;;1.30;;
70183;SDS011;57554;51.546;6.776;2022-07-03T12:00:40;6.10;;;1.20;;
70183;SDS011;57554;51.546;6.776;2022-07-03T12:03:06;6.13;;;1.30;;
70183;SDS011;57554;51.546;6.776;2022-07-03T12:05:32;6.95;;;1.17;;
70183;SDS011;57554;51.546;6.776;2022-07-03T12:08:04;3.05;;;0.88;;
70183;SDS011;57554;51.546;6.776;2022-07-03T12:10:39;3.55;;;1.00;;
70183;SDS011;57554;51.546;6.776;2022-07-03T12:13:21;5.25;;;1.20;;
70183;SDS011;57554;51.546;6.776;2022-07-03T12:15:48;5.43;;;1.35;;
70183;SDS011;57554;51.546;6.776;2022-07-03T12:18:14;3.75;;;1.00;;
70183;SDS011;57554;51.546;6.776;2022-07-03T12:20:40;3.50;;;1.02;;
70183;SDS011;57554;51.546;6.776;2022-07-03T12:23:06;3.47;;;0.98;;
70183;SDS011;57554;51.546;6.776;2022-07-03T12:25:36;4.38;;;1.00;;
70183;SDS011;57554;51.546;6.776;2022-07-03T12:28:09;5.88;;;1.10;;
70183;SDS011;57554;51.546;6.776;2022-07-03T12:30:35;3.55;;;1.15;;
70183;SDS011;57554;51.546;6.776;2022-07-03T12:33:02;5.38;;;1.13;;
70183;SDS011;57554;51.546;6.776;2022-07-03T12:35:29;5.57;;;1.17;;
70183;SDS011;57554;51.546;6.776;2022-07-03T12:37:55;3.72;;;0.90;;
70183;SDS011;57554;51.546;6.776;2022-07-03T12:40:22;3.55;;;0.90;;
70183;SDS011;57554;51.546;6.776;2022-07-03T12:45:18;4.05;;;1.08;;
70183;SDS011;57554;51.546;6.776;2022-07-03T12:47:46;4.15;;;0.70;;
70183;SDS011;57554;51.546;6.776;2022-07-03T12:50:25;5.72;;;1.10;;
70183;SDS011;57554;51.546;6.776;2022-07-03T12:52:52;5.82;;;1.00;;
70183;SDS011;57554;51.546;6.776;2022-07-03T12:55:23;3.75;;;1.02;;
70183;SDS011;57554;51.546;6.776;2022-07-03T12:57:50;7.55;;;0.90;;
70183;SDS011;57554;51.546;6.776;2022-07-03T13:00:54;3.92;;;1.00;;
70183;SDS011;57554;51.546;6.776;2022-07-03T13:03:29;3.85;;;0.90;;
70183;SDS011;57554;51.546;6.776;2022-07-03T13:05:56;4.97;;;1.25;;
70183;SDS011;57554;51.546;6.776;2022-07-03T13:08:22;5.15;;;1.02;;
70183;SDS011;57554;51.546;6.776;2022-07-03T13:10:54;4.35;;;1.00;;
70183;SDS011;57554;51.546;6.776;2022-07-03T13:13:23;3.78;;;0.90;;
70183;SDS011;57554;51.546;6.776;2022-07-03T13:15:50;4.40;;;0.98;;
70183;SDS011;57554;51.546;6.776;2022-07-03T13:18:16;6.40;;;1.20;;
70183;SDS011;57554;51.546;6.776;2022-07-03T13:20:41;9.52;;;1.30;;
70183;SDS011;57554;51.546;6.776;2022-07-03T13:23:07;7.75;;;1.20;;
70183;SDS011;57554;51.546;6.776;2022-07-03T13:25:35;5.93;;;1.00;;
70183;SDS011;57554;51.546;6.776;2022-07-03T13:28:08;4.00;;;1.10;;
70183;SDS011;57554;51.546;6.776;2022-07-03T13:30:35;3.63;;;1.10;;
70183;SDS011;57554;51.546;6.776;2022-07-03T13:33:02;4.35;;;1.10;;
70183;SDS011;57554;51.546;6.776;2022-07-03T13:35:28;7.25;;;1.30;;
70183;SDS011;57554;51.546;6.776;2022-07-03T13:37:54;4.93;;;1.10;;
70183;SDS011;57554;51.546;6.776;2022-07-03T13:40:19;5.10;;;0.90;;
70183;SDS011;57554;51.546;6.776;2022-07-03T13:42:45;4.40;;;1.40;;
70183;SDS011;57554;51.546;6.776;2022-07-03T13:45:11;4.25;;;1.05;;
70183;SDS011;57554;51.546;6.776;2022-07-03T13:47:36;6.70;;;1.38;;
70183;SDS011;57554;51.546;6.776;2022-07-03T13:50:02;3.88;;;1.00;;
70183;SDS011;57554;51.546;6.776;2022-07-03T13:52:29;3.38;;;0.90;;
70183;SDS011;57554;51.546;6.776;2022-07-03T13:54:55;3.55;;;1.00;;
70183;SDS011;57554;51.546;6.776;2022-07-03T13:57:20;5.30;;;1.20;;
70183;SDS011;57554;51.546;6.776;2022-07-03T13:59:46;4.05;;;0.98;;
70183;SDS011;57554;51.546;6.776;2022-07-03T14:02:12;4.55;;;1.10;;
70183;SDS011;57554;51.546;6.776;2022-07-03T14:04:38;3.97;;;1.00;;
70183;SDS011;57554;51.546;6.776;2022-07-03T14:07:04;7.65;;;1.65;;
70183;SDS011;57554;51.546;6.776;2022-07-03T14:09:29;3.35;;;0.95;;
70183;SDS011;57554;51.546;6.776;2022-07-03T14:11:55;3.55;;;1.15;;
70183;SDS011;57554;51.546;6.776;2022-07-03T14:14:21;3.30;;;1.05;;
70183;SDS011;57554;51.546;6.776;2022-07-03T14:16:46;8.05;;;1.10;;
70183;SDS011;57554;51.546;6.776;2022-07-03T14:19:12;3.92;;;0.98;;
70183;SDS011;57554;51.546;6.776;2022-07-03T14:21:38;4.78;;;1.25;;
70183;SDS011;57554;51.546;6.776;2022-07-03T14:24:03;3.42;;;0.90;;
70183;SDS011;57554;51.546;6.776;2022-07-03T14:26:29;5.43;;;1.00;;
70183;SDS011;57554;51.546;6.776;2022-07-03T14:29:14;3.70;;;0.80;;
70183;SDS011;57554;51.546;6.776;2022-07-03T14:31:58;4.78;;;0.90;;
70183;SDS011;57554;51.546;6.776;2022-07-03T14:34:53;3.60;;;0.90;;
70183;SDS011;57554;51.546;6.776;2022-07-03T14:37:18;4.75;;;0.98;;
70183;SDS011;57554;51.546;6.776;2022-07-03T14:39:44;4.57;;;1.00;;
70183;SDS011;57554;51.546;6.776;2022-07-03T14:42:11;5.95;;;1.10;;
70183;SDS011;57554;51.546;6.776;2022-07-03T14:44:36;5.78;;;1.00;;
70183;SDS011;57554;51.546;6.776;2022-07-03T14:47:02;4.80;;;1.00;;
70183;SDS011;57554;51.546;6.776;2022-07-03T14:49:28;6.90;;;1.25;;
70183;SDS011;57554;51.546;6.776;2022-07-03T14:51:53;5.78;;;1.13;;
70183;SDS011;57554;51.546;6.776;2022-07-03T14:54:19;4.65;;;0.90;;
70183;SDS011;57554;51.546;6.776;2022-07-03T14:56:55;4.20;;;0.93;;
70183;SDS011;57554;51.546;6.776;2022-07-03T15:01:57;3.55;;;0.80;;
70183;SDS011;57554;51.546;6.776;2022-07-03T15:04:40;4.18;;;1.02;;
70183;SDS011;57554;51.546;6.776;2022-07-03T15:07:17;3.63;;;0.90;;
70183;SDS011;57554;51.546;6.776;2022-07-03T15:09:54;3.13;;;0.93;;
70183;SDS011;57554;51.546;6.776;2022-07-03T15:12:30;4.47;;;1.00;;
70183;SDS011;57554;51.546;6.776;2022-07-03T15:14:58;4.00;;;1.13;;
70183;SDS011;57554;51.546;6.776;2022-07-03T15:17:26;5.40;;;1.10;;
70183;SDS011;57554;51.546;6.776;2022-07-03T15:19:53;4.07;;;1.10;;
70183;SDS011;57554;51.546;6.776;2022-07-03T15:22:21;3.80;;;1.10;;
70183;SDS011;57554;51.546;6.776;2022-07-03T15:24:48;3.75;;;0.93;;
70183;SDS011;57554;51.546;6.776;2022-07-03T15:27:17;4.88;;;1.00;;
70183;SDS011;57554;51.546;6.776;2022-07-03T15:29:44;6.32;;;0.93;;
70183;SDS011;57554;51.546;6.776;2022-07-03T15:32:10;4.03;;;0.90;;
70183;SDS011;57554;51.546;6.776;2022-07-03T15:34:37;3.75;;;0.90;;
70183;SDS011;57554;51.546;6.776;2022-07-03T15:39:47;4.90;;;1.20;;
70183;SDS011;57554;51.546;6.776;2022-07-03T15:42:26;5.53;;;1.20;;
70183;SDS011;57554;51.546;6.776;2022-07-03T15:47:57;4.65;;;0.90;;
70183;SDS011;57554;51.546;6.776;2022-07-03T15:53:18;4.38;;;0.90;;
70183;SDS011;57554;51.546;6.776;2022-07-03T15:55:46;3.90;;;1.10;;
70183;SDS011;57554;51.546;6.776;2022-07-03T15:58:17;4.22;;;0.85;;
70183;SDS011;57554;51.546;6.776;2022-07-03T16:00:51;3.60;;;1.00;;
70183;SDS011;57554;51.546;6.776;2022-07-03T16:03:37;5.38;;;1.10;;
70183;SDS011;57554;51.546;6.776;2022-07-03T16:06:17;5.63;;;1.02;;